Time;durP1;ratioP1;P1;durP2;ratioP2;P2;SDS_P1;SDS_P2;PMS_P1;PMS_P2;Temp;Humidity;BMP_temperature;BMP_pressure;BME280_temperature;BME280_humidity;BME280_pressure;Samples;Min_cycle;Max_cycle;Signal;HPM_P1;HPM_P2
2021/07/20 00:00:00;;;;;;;4.38;2.10;;;16.30;99.90;;;;;;5043672;28;20089;-72
2021/07/20 00:02:43;;;;;;;3.85;2.08;;;16.30;99.90;;;;;;5044489;28;20034;-73
2021/07/20 00:05:12;;;;;;;4.60;2.25;;;16.30;99.90;;;;;;5042866;28;20028;-72
2021/07/20 00:07:39;;;;;;;5.85;2.05;;;16.30;99.90;;;;;;5043996;28;20022;-71
2021/07/20 00:10:20;;;;;;;5.43;2.20;;;16.20;99.90;;;;;;5044070;28;20375;-74
2021/07/20 00:12:46;;;;;;;3.63;2.13;;;16.30;99.90;;;;;;5044133;28;20021;-73
2021/07/20 00:15:15;;;;;;;4.47;2.05;;;16.30;99.90;;;;;;5042380;28;20073;-73
2021/07/20 00:17:44;;;;;;;3.35;1.95;;;16.30;99.90;;;;;;5044056;28;20040;-72
2021/07/20 00:20:13;;;;;;;5.78;1.83;;;16.30;99.90;;;;;;5043935;28;20025;-71
2021/07/20 00:22:38;;;;;;;4.80;1.95;;;16.30;99.90;;;;;;5044061;28;20052;-72
2021/07/20 00:25:06;;;;;;;2.30;1.48;;;16.30;99.90;;;;;;5045629;28;20030;-72
2021/07/20 00:27:31;;;;;;;3.65;2.40;;;16.30;99.90;;;;;;5047225;28;20025;-72
2021/07/20 00:29:57;;;;;;;6.97;2.08;;;16.20;99.90;;;;;;5047668;28;20037;-71
2021/07/20 00:32:22;;;;;;;5.45;2.03;;;16.30;99.90;;;;;;5046468;28;20469;-73
2021/07/20 00:34:48;;;;;;;8.63;2.42;;;16.20;99.90;;;;;;5047820;28;20045;-71
2021/07/20 00:37:15;;;;;;;6.45;2.38;;;16.20;99.90;;;;;;5047966;28;20040;-70
2021/07/20 00:39:42;;;;;;;6.03;2.30;;;16.20;99.90;;;;;;5047352;28;20033;-72
2021/07/20 00:42:08;;;;;;;4.38;2.28;;;16.20;99.90;;;;;;5047560;28;20505;-72
2021/07/20 00:44:34;;;;;;;3.85;1.63;;;16.20;99.90;;;;;;5046363;28;20059;-72
2021/07/20 00:47:00;;;;;;;4.75;2.10;;;16.20;99.90;;;;;;5047339;28;20104;-72
2021/07/20 00:49:25;;;;;;;7.38;2.75;;;16.20;99.90;;;;;;5047214;28;20041;-72
2021/07/20 00:51:51;;;;;;;4.53;2.38;;;16.20;99.90;;;;;;5046844;28;20026;-72
2021/07/20 00:54:18;;;;;;;7.15;2.65;;;16.20;99.90;;;;;;5047407;28;20091;-70
2021/07/20 00:56:44;;;;;;;6.53;2.25;;;16.20;99.90;;;;;;5046862;28;20475;-74
2021/07/20 00:59:13;;;;;;;5.88;2.10;;;16.20;99.90;;;;;;5048051;28;20056;-71
2021/07/20 01:01:39;;;;;;;7.57;2.33;;;16.20;99.90;;;;;;5047585;28;20132;-71
2021/07/20 01:04:04;;;;;;;5.20;2.22;;;16.20;99.90;;;;;;5046933;28;20023;-70
2021/07/20 01:06:32;;;;;;;3.15;1.90;;;16.20;99.90;;;;;;5047057;28;20652;-73
2021/07/20 01:09:03;;;;;;;3.22;1.88;;;16.10;99.90;;;;;;5047104;28;20467;-72
2021/07/20 01:11:32;;;;;;;6.57;2.67;;;16.10;99.90;;;;;;5046529;28;20037;-70
2021/07/20 01:14:01;;;;;;;6.13;2.42;;;16.10;99.90;;;;;;5046414;28;20049;-71
2021/07/20 01:16:26;;;;;;;3.92;2.20;;;16.00;99.90;;;;;;5045540;28;20044;-69
2021/07/20 01:18:52;;;;;;;6.40;2.35;;;16.10;99.90;;;;;;5046433;28;20065;-72
2021/07/20 01:21:20;;;;;;;4.47;2.05;;;16.00;99.90;;;;;;5046916;28;20025;-71
2021/07/20 01:23:47;;;;;;;8.15;2.17;;;16.00;99.90;;;;;;5045456;28;20336;-71
2021/07/20 01:26:13;;;;;;;3.70;2.28;;;16.10;99.90;;;;;;5046441;28;20033;-72
2021/07/20 01:28:40;;;;;;;3.78;2.22;;;16.00;99.90;;;;;;5046519;28;20044;-73
2021/07/20 01:31:13;;;;;;;6.35;2.40;;;16.00;99.90;;;;;;5046782;28;20432;-73
2021/07/20 01:33:49;;;;;;;6.78;2.92;;;16.00;99.90;;;;;;5046649;28;20093;-72
2021/07/20 01:36:22;;;;;;;6.35;2.80;;;15.90;99.90;;;;;;5045728;28;20167;-73
2021/07/20 01:38:51;;;;;;;8.82;3.15;;;15.90;99.90;;;;;;5046748;28;20138;-74
2021/07/20 01:41:18;;;;;;;8.63;2.55;;;15.90;99.90;;;;;;5046722;28;20034;-72
2021/07/20 01:44:08;;;;;;;10.55;2.47;;;15.90;99.90;;;;;;5044898;28;20366;-71
2021/07/20 01:46:36;;;;;;;5.13;2.22;;;15.90;99.90;;;;;;5046569;28;20060;-70
2021/07/20 01:49:06;;;;;;;8.15;3.00;;;15.90;99.90;;;;;;5046218;28;20383;-71
2021/07/20 01:51:33;;;;;;;6.95;2.67;;;15.90;99.90;;;;;;5061403;28;20441;-73
2021/07/20 01:54:00;;;;;;;6.35;2.80;;;15.90;99.90;;;;;;5045885;28;20037;-71
2021/07/20 01:56:26;;;;;;;6.78;2.65;;;15.90;99.90;;;;;;5044571;28;20037;-71
2021/07/20 01:58:52;;;;;;;4.22;2.20;;;15.90;99.90;;;;;;5046323;28;20027;-72
2021/07/20 02:01:26;;;;;;;5.70;2.30;;;15.90;99.90;;;;;;5046190;28;20029;-73
2021/07/20 02:09:14;;;;;;;5.60;2.55;;;15.90;99.90;;;;;;5046114;28;20028;-71
2021/07/20 02:11:41;;;;;;;4.03;2.20;;;15.90;99.90;;;;;;5045472;28;20030;-71
2021/07/20 02:14:11;;;;;;;8.63;2.70;;;15.90;99.90;;;;;;5045370;28;20045;-71
2021/07/20 02:16:45;;;;;;;6.70;2.55;;;15.80;99.90;;;;;;5045625;28;20037;-71
2021/07/20 02:19:28;;;;;;;3.00;2.15;;;16.00;99.90;;;;;;5044685;28;20018;-73
2021/07/20 02:21:58;;;;;;;10.30;2.10;;;15.90;99.90;;;;;;5045466;28;20089;-72
2021/07/20 02:24:28;;;;;;;3.47;1.88;;;15.90;99.90;;;;;;5045342;28;20025;-73
2021/07/20 02:26:55;;;;;;;4.45;1.80;;;15.90;99.90;;;;;;5045650;28;20033;-71
2021/07/20 02:29:22;;;;;;;5.18;2.50;;;15.90;99.90;;;;;;5045729;28;20025;-72
2021/07/20 02:31:51;;;;;;;5.53;2.95;;;15.90;99.90;;;;;;5043867;28;20026;-73
2021/07/20 02:34:19;;;;;;;5.30;2.15;;;15.90;99.90;;;;;;5045907;28;20060;-72
2021/07/20 02:36:45;;;;;;;4.75;2.67;;;15.90;99.90;;;;;;5045027;28;20092;-72
2021/07/20 02:39:13;;;;;;;2.90;2.17;;;15.80;99.90;;;;;;5045462;28;20057;-73
2021/07/20 02:41:39;;;;;;;4.28;2.17;;;15.80;99.90;;;;;;5060368;28;20034;-71
2021/07/20 02:44:07;;;;;;;7.72;2.30;;;15.90;99.90;;;;;;5044822;28;20033;-72
2021/07/20 02:46:35;;;;;;;4.28;2.33;;;15.80;99.90;;;;;;5045168;28;20056;-72
2021/07/20 02:49:01;;;;;;;5.18;1.80;;;15.80;99.90;;;;;;5044913;28;20422;-72
2021/07/20 02:51:27;;;;;;;3.30;1.90;;;15.80;99.90;;;;;;5045014;28;20030;-72
2021/07/20 02:53:57;;;;;;;3.13;1.52;;;15.70;99.90;;;;;;5043323;28;20034;-74
2021/07/20 02:56:23;;;;;;;5.72;2.45;;;15.80;99.90;;;;;;5043686;28;20049;-71
2021/07/20 02:58:52;;;;;;;5.72;2.50;;;15.70;99.90;;;;;;5043485;28;20033;-72
2021/07/20 03:01:19;;;;;;;3.72;1.90;;;15.80;99.90;;;;;;5043489;28;20509;-75
2021/07/20 03:03:45;;;;;;;4.25;2.05;;;15.80;99.90;;;;;;5044969;28;20021;-73
2021/07/20 03:06:12;;;;;;;5.65;2.10;;;15.80;99.90;;;;;;5043135;28;20032;-74
2021/07/20 03:08:39;;;;;;;14.68;2.85;;;15.80;99.90;;;;;;5044805;28;20017;-73
2021/07/20 03:11:08;;;;;;;6.63;2.33;;;15.70;99.90;;;;;;5044541;28;20115;-73
2021/07/20 03:13:39;;;;;;;3.67;2.28;;;15.70;99.90;;;;;;5045198;28;20064;-73
2021/07/20 03:16:08;;;;;;;8.00;2.40;;;15.80;99.90;;;;;;5044889;28;20049;-73
2021/07/20 03:18:37;;;;;;;5.25;2.05;;;15.80;99.90;;;;;;5044334;28;20077;-75
2021/07/20 03:21:04;;;;;;;5.25;2.45;;;15.80;99.90;;;;;;5044522;28;20041;-73
2021/07/20 03:23:32;;;;;;;11.20;2.38;;;15.70;99.90;;;;;;5060025;28;20418;-73
2021/07/20 03:25:59;;;;;;;4.68;2.17;;;15.80;99.90;;;;;;5043080;28;20026;-72
2021/07/20 03:28:26;;;;;;;2.65;1.45;;;15.80;99.90;;;;;;5044485;28;20033;-73
2021/07/20 03:30:59;;;;;;;3.75;2.15;;;15.80;99.90;;;;;;5044100;28;20029;-71
2021/07/20 03:33:26;;;;;;;4.30;2.20;;;15.80;99.90;;;;;;5044474;28;20057;-70
2021/07/20 03:35:53;;;;;;;3.25;1.88;;;15.80;99.90;;;;;;5044088;28;20038;-71
2021/07/20 03:38:20;;;;;;;3.33;2.10;;;15.70;99.90;;;;;;5043016;28;20441;-72
2021/07/20 03:40:47;;;;;;;13.48;2.35;;;15.80;99.90;;;;;;5044551;28;20017;-72
2021/07/20 03:43:15;;;;;;;3.95;1.83;;;15.70;99.90;;;;;;5043162;28;20025;-73
2021/07/20 03:45:41;;;;;;;6.70;1.92;;;15.80;99.90;;;;;;5044307;28;20469;-73
2021/07/20 03:48:08;;;;;;;3.63;1.92;;;15.80;99.90;;;;;;5042846;28;20587;-71
2021/07/20 03:50:35;;;;;;;5.80;1.77;;;15.80;99.90;;;;;;5042715;28;20068;-75
2021/07/20 03:53:02;;;;;;;4.72;2.08;;;15.80;99.90;;;;;;5042613;28;20026;-73
2021/07/20 03:55:28;;;;;;;3.15;1.58;;;15.80;99.90;;;;;;5044007;28;20553;-71
2021/07/20 03:57:53;;;;;;;4.40;1.58;;;15.80;99.90;;;;;;5044140;28;20049;-75
2021/07/20 04:00:20;;;;;;;2.95;1.92;;;15.80;99.90;;;;;;5044861;28;20033;-72
2021/07/20 04:02:56;;;;;;;3.92;1.80;;;15.80;99.90;;;;;;5048513;28;20047;-74
2021/07/20 04:05:23;;;;;;;3.85;1.80;;;15.80;99.90;;;;;;5048163;28;20029;-73
2021/07/20 04:07:51;;;;;;;2.20;1.52;;;15.80;99.90;;;;;;5048079;28;20029;-72
2021/07/20 04:10:17;;;;;;;4.70;1.95;;;15.70;99.90;;;;;;5048496;28;20022;-72
2021/07/20 04:12:44;;;;;;;5.00;2.22;;;15.80;99.90;;;;;;5048057;28;20430;-74
2021/07/20 04:15:13;;;;;;;4.35;1.80;;;15.80;99.90;;;;;;5048024;28;20053;-71
2021/07/20 04:17:40;;;;;;;3.55;2.33;;;15.80;99.90;;;;;;5063233;28;20063;-72
2021/07/20 04:20:06;;;;;;;4.80;2.30;;;15.80;99.90;;;;;;5048105;28;20117;-72
2021/07/20 04:22:32;;;;;;;4.28;1.80;;;15.80;99.90;;;;;;5047909;28;20036;-73
2021/07/20 04:25:00;;;;;;;3.65;1.75;;;15.80;99.90;;;;;;5048028;28;20033;-73
2021/07/20 04:27:26;;;;;;;3.22;1.98;;;15.80;99.90;;;;;;5047571;28;20026;-74
2021/07/20 04:29:52;;;;;;;2.90;1.70;;;15.80;99.90;;;;;;5046187;28;20049;-72
2021/07/20 04:32:20;;;;;;;6.72;2.20;;;15.80;99.90;;;;;;5046690;28;20032;-73
2021/07/20 04:34:46;;;;;;;6.13;2.35;;;15.80;99.90;;;;;;5046249;28;20410;-73
2021/07/20 04:37:14;;;;;;;3.58;1.88;;;15.80;99.90;;;;;;5046683;28;20032;-73
2021/07/20 04:39:40;;;;;;;3.67;1.88;;;15.80;99.90;;;;;;5047806;28;20474;-72
2021/07/20 04:42:07;;;;;;;4.35;2.15;;;15.90;99.90;;;;;;5047677;28;20077;-72
2021/07/20 04:44:35;;;;;;;5.47;2.35;;;15.90;99.90;;;;;;5047304;28;20025;-73
2021/07/20 04:47:00;;;;;;;5.10;2.30;;;15.90;99.90;;;;;;5046301;28;20037;-72
2021/07/20 04:49:26;;;;;;;4.97;2.22;;;16.00;99.90;;;;;;5047371;28;20037;-72
2021/07/20 04:51:52;;;;;;;2.42;1.70;;;15.90;99.90;;;;;;5046984;28;20025;-71
2021/07/20 04:54:18;;;;;;;3.40;2.15;;;15.90;99.90;;;;;;5046973;28;20048;-72
2021/07/20 04:56:45;;;;;;;7.75;1.95;;;16.00;99.90;;;;;;5047234;28;20041;-71
2021/07/20 04:59:11;;;;;;;7.63;2.40;;;16.00;99.90;;;;;;5047594;28;20021;-71
2021/07/20 05:01:42;;;;;;;6.05;2.50;;;16.00;99.90;;;;;;5047176;28;20477;-74
2021/07/20 05:04:09;;;;;;;4.75;2.28;;;16.00;99.90;;;;;;5047322;28;20037;-72
2021/07/20 05:06:36;;;;;;;3.33;1.63;;;16.10;99.90;;;;;;5047129;28;20033;-72
2021/07/20 05:09:05;;;;;;;6.63;2.45;;;16.00;99.90;;;;;;5047054;28;20029;-71
2021/07/20 05:11:33;;;;;;;2.95;1.42;;;16.10;99.90;;;;;;5045901;28;20044;-72
2021/07/20 05:13:59;;;;;;;3.03;1.90;;;16.10;99.90;;;;;;5046300;28;20049;-74
2021/07/20 05:16:25;;;;;;;6.38;1.88;;;16.10;99.90;;;;;;5046931;28;20051;-72
2021/07/20 05:18:50;;;;;;;4.63;1.70;;;16.10;99.90;;;;;;5045336;28;20032;-72
2021/07/20 05:21:24;;;;;;;9.60;2.75;;;16.10;99.90;;;;;;5047400;28;20040;-73
2021/07/20 05:23:50;;;;;;;7.43;2.60;;;16.10;99.90;;;;;;5046348;28;20029;-72
2021/07/20 05:26:16;;;;;;;7.38;1.65;;;16.10;99.90;;;;;;5047381;28;20702;-71
2021/07/20 05:28:43;;;;;;;3.30;2.00;;;16.10;99.90;;;;;;5054631;28;20029;-71
2021/07/20 05:31:09;;;;;;;3.53;1.65;;;16.20;99.90;;;;;;5055705;28;20071;-70
2021/07/20 05:33:35;;;;;;;4.32;1.83;;;16.10;99.90;;;;;;5047211;28;20029;-71
2021/07/20 05:36:02;;;;;;;4.85;2.17;;;16.20;99.90;;;;;;5046492;28;20098;-70
2021/07/20 05:38:29;;;;;;;16.70;2.75;;;16.20;99.90;;;;;;5046688;28;20017;-71
2021/07/20 05:40:57;;;;;;;4.18;1.98;;;16.20;99.90;;;;;;5052906;28;20085;-72
2021/07/20 05:43:28;;;;;;;4.00;2.00;;;16.20;99.90;;;;;;5064771;28;20033;-71
2021/07/20 05:45:57;;;;;;;3.58;1.92;;;16.30;99.90;;;;;;5062381;28;20386;-70
2021/07/20 05:48:23;;;;;;;3.85;1.90;;;16.30;99.90;;;;;;5046386;28;20052;-71
2021/07/20 05:50:54;;;;;;;4.38;1.52;;;16.30;99.90;;;;;;5046495;28;20061;-72
2021/07/20 05:53:22;;;;;;;3.85;2.08;;;16.40;99.90;;;;;;5044571;28;20044;-71
2021/07/20 05:55:55;;;;;;;3.00;1.52;;;16.40;99.90;;;;;;5046169;28;20046;-72
2021/07/20 05:58:21;;;;;;;5.80;2.00;;;16.40;99.90;;;;;;5057604;28;20029;-71
2021/07/20 06:00:48;;;;;;;3.17;1.75;;;16.50;99.90;;;;;;5066155;28;20025;-72
2021/07/20 06:03:19;;;;;;;2.95;1.70;;;16.40;99.90;;;;;;5066200;28;20029;-72
2021/07/20 06:05:49;;;;;;;4.07;1.65;;;16.50;99.90;;;;;;5065784;28;20033;-72
2021/07/20 06:08:16;;;;;;;2.60;1.67;;;16.50;99.90;;;;;;5065743;28;20021;-71
2021/07/20 06:10:45;;;;;;;3.25;1.88;;;16.50;99.90;;;;;;5059671;28;20088;-72
2021/07/20 06:13:12;;;;;;;4.72;1.92;;;16.50;99.90;;;;;;5048184;28;20132;-72
2021/07/20 06:15:40;;;;;;;3.75;1.98;;;16.50;99.90;;;;;;5065857;28;20709;-71
2021/07/20 06:18:05;;;;;;;4.93;1.80;;;16.50;99.90;;;;;;5065755;28;20029;-71
2021/07/20 06:20:32;;;;;;;3.55;1.80;;;16.50;99.90;;;;;;5058620;28;20040;-72
2021/07/20 06:22:59;;;;;;;6.25;2.05;;;16.50;99.90;;;;;;5045405;28;20033;-71
2021/07/20 06:25:25;;;;;;;6.00;1.70;;;16.50;99.90;;;;;;5044435;28;20097;-71
2021/07/20 06:27:51;;;;;;;3.80;1.80;;;16.50;99.90;;;;;;5045616;28;20026;-73
2021/07/20 06:30:19;;;;;;;7.82;2.13;;;16.60;99.90;;;;;;5045691;28;20025;-73
2021/07/20 06:32:46;;;;;;;3.70;1.67;;;16.60;99.90;;;;;;5045732;28;20028;-73
2021/07/20 06:35:14;;;;;;;6.10;2.30;;;16.60;99.90;;;;;;5045144;28;20057;-71
2021/07/20 06:37:45;;;;;;;3.33;1.80;;;16.60;99.90;;;;;;5045781;28;20081;-71
2021/07/20 06:40:18;;;;;;;3.42;1.80;;;16.70;99.90;;;;;;5059164;28;20096;-71
2021/07/20 06:42:44;;;;;;;3.25;1.80;;;16.60;99.90;;;;;;5065257;28;20084;-71
2021/07/20 06:45:13;;;;;;;2.42;1.48;;;16.70;99.90;;;;;;5065579;28;20114;-73
2021/07/20 06:47:46;;;;;;;3.22;1.48;;;16.70;99.90;;;;;;5065127;28;20029;-71
2021/07/20 06:50:14;;;;;;;8.07;1.83;;;16.70;99.90;;;;;;5064790;28;20029;-72
2021/07/20 06:52:42;;;;;;;3.63;1.67;;;16.70;99.90;;;;;;5063973;28;20033;-72
2021/07/20 06:55:08;;;;;;;3.35;1.58;;;16.70;99.90;;;;;;5065286;28;20032;-71
2021/07/20 06:57:37;;;;;;;4.60;1.90;;;16.80;99.90;;;;;;5064781;28;20025;-71
2021/07/20 07:00:06;;;;;;;8.32;1.95;;;16.90;99.90;;;;;;5065024;28;20037;-71
2021/07/20 07:02:32;;;;;;;9.63;2.05;;;16.80;99.90;;;;;;5064979;28;20028;-72
2021/07/20 07:05:14;;;;;;;5.28;2.15;;;16.90;99.90;;;;;;5064832;28;20033;-72
2021/07/20 07:07:41;;;;;;;5.53;2.20;;;16.90;99.90;;;;;;5060493;28;20036;-72
2021/07/20 07:10:08;;;;;;;3.40;1.45;;;17.00;99.90;;;;;;5044664;28;20049;-71
2021/07/20 07:12:36;;;;;;;4.63;1.40;;;17.00;99.90;;;;;;5044703;28;20013;-72
2021/07/20 07:15:05;;;;;;;5.95;2.70;;;17.10;99.90;;;;;;5044352;28;20086;-70
2021/07/20 07:17:32;;;;;;;2.20;1.23;;;17.10;99.90;;;;;;5044429;28;20087;-70
2021/07/20 07:20:00;;;;;;;2.88;1.50;;;17.10;99.90;;;;;;5044621;28;20021;-71
2021/07/20 07:22:26;;;;;;;9.18;1.88;;;17.20;99.90;;;;;;5044806;28;20029;-71
2021/07/20 07:24:53;;;;;;;4.25;2.10;;;17.20;99.90;;;;;;5044788;28;20060;-72
2021/07/20 07:27:20;;;;;;;8.20;2.55;;;17.30;99.90;;;;;;5044360;28;20029;-72
2021/07/20 07:29:49;;;;;;;3.92;1.92;;;17.50;99.90;;;;;;5059926;28;20035;-74
2021/07/20 07:32:15;;;;;;;5.97;1.50;;;17.60;99.90;;;;;;5045090;28;20033;-72
2021/07/20 07:34:42;;;;;;;3.38;1.75;;;17.70;99.90;;;;;;5043949;28;20136;-72
2021/07/20 07:37:08;;;;;;;5.20;1.70;;;17.80;99.90;;;;;;5044999;28;20056;-71
2021/07/20 07:39:35;;;;;;;6.65;1.67;;;17.90;99.90;;;;;;5044736;28;20087;-72
2021/07/20 07:42:01;;;;;;;4.10;1.80;;;17.90;99.90;;;;;;5044551;28;20021;-73
2021/07/20 07:44:27;;;;;;;3.20;1.90;;;18.00;99.90;;;;;;5044446;28;20060;-72
2021/07/20 07:46:55;;;;;;;2.47;1.60;;;18.00;99.90;;;;;;5044551;28;20120;-72
2021/07/20 07:49:21;;;;;;;7.95;2.28;;;18.10;99.90;;;;;;5043924;28;20089;-73
2021/07/20 07:51:50;;;;;;;3.42;1.58;;;18.10;99.90;;;;;;5044443;28;20021;-71
2021/07/20 07:54:16;;;;;;;8.07;2.10;;;18.10;99.90;;;;;;5044714;28;20033;-70
2021/07/20 07:56:44;;;;;;;3.15;1.67;;;18.00;99.90;;;;;;5043284;28;20034;-72
2021/07/20 07:59:10;;;;;;;4.93;2.28;;;18.10;99.90;;;;;;5044321;28;20486;-72
2021/07/20 08:01:43;;;;;;;4.10;2.30;;;18.10;99.90;;;;;;5043407;28;20048;-71
2021/07/20 08:04:13;;;;;;;2.90;1.90;;;18.10;99.90;;;;;;5048591;28;20033;-73
2021/07/20 08:06:40;;;;;;;3.50;1.77;;;18.10;99.90;;;;;;5051822;28;20025;-72
2021/07/20 08:09:06;;;;;;;6.93;2.15;;;18.10;99.90;;;;;;5053698;28;20033;-72
2021/07/20 08:11:34;;;;;;;6.00;1.88;;;18.20;99.90;;;;;;5043538;28;20096;-71
2021/07/20 08:14:02;;;;;;;7.15;2.33;;;18.20;99.90;;;;;;5048778;28;20084;-72
2021/07/20 08:16:32;;;;;;;4.65;2.00;;;18.30;99.90;;;;;;5056321;28;20041;-70
2021/07/20 08:19:00;;;;;;;5.30;1.90;;;18.30;99.90;;;;;;5058746;28;20035;-71
2021/07/20 08:21:28;;;;;;;2.58;1.67;;;18.30;99.90;;;;;;5063511;28;20037;-72
2021/07/20 08:23:56;;;;;;;6.55;2.45;;;18.30;99.90;;;;;;5063625;28;20021;-71
2021/07/20 08:26:28;;;;;;;6.10;2.28;;;18.30;99.90;;;;;;5063737;28;20021;-71
2021/07/20 08:29:04;;;;;;;5.80;2.33;;;18.20;99.90;;;;;;5063613;28;20029;-71
2021/07/20 08:31:36;;;;;;;4.30;1.88;;;18.20;99.90;;;;;;5063428;28;20025;-70
2021/07/20 08:34:04;;;;;;;4.50;2.25;;;18.20;99.90;;;;;;5063640;28;20584;-71
2021/07/20 08:36:34;;;;;;;4.45;2.17;;;18.10;99.90;;;;;;5062538;28;20043;-73
2021/07/20 08:39:03;;;;;;;3.80;2.10;;;18.10;99.90;;;;;;5063408;28;20089;-71
2021/07/20 08:41:59;;;;;;;4.35;2.00;;;18.10;99.90;;;;;;5055029;28;20057;-72
2021/07/20 08:44:58;;;;;;;6.15;2.40;;;18.10;99.90;;;;;;5045768;28;20053;-70
2021/07/20 08:47:35;;;;;;;9.25;2.58;;;18.10;99.90;;;;;;5063575;28;20040;-71
2021/07/20 08:50:22;;;;;;;6.50;1.73;;;18.10;99.90;;;;;;5057458;28;20036;-70
2021/07/20 08:53:00;;;;;;;7.10;2.53;;;18.20;99.90;;;;;;5054249;28;20335;-71
2021/07/20 08:55:29;;;;;;;2.08;1.42;;;18.30;99.90;;;;;;5054420;28;20041;-71
2021/07/20 08:58:14;;;;;;;4.50;2.35;;;18.50;99.90;;;;;;5046864;28;20592;-71
2021/07/20 09:00:42;;;;;;;4.15;2.45;;;18.70;99.90;;;;;;5047438;28;20028;-71
2021/07/20 09:03:46;;;;;;;4.13;2.38;;;18.90;99.90;;;;;;5045309;28;20055;-73
2021/07/20 09:07:01;;;;;;;3.20;1.77;;;19.10;99.90;;;;;;5052016;28;20033;-74
2021/07/20 09:09:33;;;;;;;5.88;2.47;;;19.30;99.90;;;;;;5045427;28;20057;-72
2021/07/20 09:12:09;;;;;;;3.15;1.98;;;19.50;99.90;;;;;;5047249;28;20109;-73
2021/07/20 09:14:44;;;;;;;4.88;2.47;;;19.60;99.90;;;;;;5046943;28;20105;-73
2021/07/20 09:17:28;;;;;;;3.38;1.83;;;19.60;99.90;;;;;;5046936;28;20041;-73
2021/07/20 09:19:58;;;;;;;4.10;1.98;;;19.60;99.90;;;;;;5046974;28;20037;-73
2021/07/20 09:22:51;;;;;;;2.92;1.70;;;19.60;99.90;;;;;;5053393;28;20028;-73
2021/07/20 09:25:24;;;;;;;4.55;2.10;;;19.50;99.90;;;;;;5059293;28;20028;-73
2021/07/20 09:28:18;;;;;;;5.15;2.28;;;19.50;99.90;;;;;;5066561;28;20024;-74
2021/07/20 09:30:47;;;;;;;11.65;2.20;;;19.40;99.90;;;;;;5066584;28;20056;-72
2021/07/20 09:33:39;;;;;;;3.72;2.35;;;19.40;99.90;;;;;;5060874;28;20022;-72
2021/07/20 09:36:31;;;;;;;4.93;2.10;;;19.40;99.90;;;;;;5046176;28;20041;-72
2021/07/20 09:38:58;;;;;;;5.03;2.17;;;19.40;99.90;;;;;;5045481;28;20030;-72
2021/07/20 09:41:54;;;;;;;3.92;1.70;;;19.40;99.90;;;;;;5045314;28;20033;-73
2021/07/20 09:44:20;;;;;;;4.38;2.40;;;19.50;99.90;;;;;;5044958;28;20045;-75
2021/07/20 09:46:57;;;;;;;7.15;2.67;;;19.60;99.90;;;;;;5047265;28;20025;-72
2021/07/20 09:49:45;;;;;;;5.85;2.33;;;19.90;99.90;;;;;;5047379;28;20038;-71
2021/07/20 09:52:37;;;;;;;4.25;2.15;;;20.20;99.90;;;;;;5047150;28;20048;-72
2021/07/20 09:55:14;;;;;;;3.22;1.85;;;20.40;99.90;;;;;;5045221;28;20033;-74
2021/07/20 09:58:06;;;;;;;3.97;2.33;;;20.50;99.90;;;;;;5045567;28;20037;-73
2021/07/20 10:00:58;;;;;;;4.82;2.00;;;20.70;99.90;;;;;;5047700;28;20093;-72
2021/07/20 10:03:46;;;;;;;6.85;2.10;;;20.90;99.90;;;;;;5065661;28;20053;-73
2021/07/20 10:06:41;;;;;;;5.63;2.15;;;20.90;99.90;;;;;;5058809;28;20025;-73
2021/07/20 10:09:20;;;;;;;3.55;1.60;;;20.90;99.90;;;;;;5064952;28;20120;-72
2021/07/20 10:12:08;;;;;;;5.38;2.55;;;20.90;99.90;;;;;;5065195;28;20037;-71
2021/07/20 10:14:52;;;;;;;3.45;2.00;;;21.00;99.90;;;;;;5045548;28;20072;-71
2021/07/20 10:17:41;;;;;;;5.95;2.67;;;21.00;99.90;;;;;;5045791;28;20421;-71
2021/07/20 10:20:15;;;;;;;2.72;1.75;;;21.10;99.90;;;;;;5045857;28;21005;-71
2021/07/20 10:22:46;;;;;;;4.93;2.03;;;21.10;99.90;;;;;;5045882;28;20053;-71
2021/07/20 10:25:46;;;;;;;6.18;2.30;;;21.20;99.90;;;;;;5045479;28;20493;-72
2021/07/20 10:28:25;;;;;;;4.97;2.38;;;21.20;99.90;;;;;;5029514;28;20081;-73
2021/07/20 10:31:00;;;;;;;5.82;2.22;;;21.40;99.90;;;;;;5052028;28;20049;-73
2021/07/20 10:33:29;;;;;;;6.13;2.35;;;21.50;99.90;;;;;;5055521;28;20059;-71
2021/07/20 10:36:03;;;;;;;3.88;2.10;;;21.50;99.90;;;;;;5065187;28;20037;-73
2021/07/20 10:38:37;;;;;;;3.88;2.58;;;21.50;99.90;;;;;;5065178;28;20084;-73
2021/07/20 10:41:06;;;;;;;5.07;2.60;;;21.70;99.90;;;;;;5065274;28;20099;-74
2021/07/20 10:43:39;;;;;;;4.38;2.10;;;21.80;99.90;;;;;;5065462;28;20070;-73
2021/07/20 10:46:07;;;;;;;3.90;1.80;;;21.90;99.90;;;;;;5048004;28;20097;-73
2021/07/20 10:48:39;;;;;;;5.63;2.00;;;21.80;99.90;;;;;;5045342;28;20128;-72
2021/07/20 10:51:14;;;;;;;5.65;2.15;;;21.70;99.90;;;;;;5045256;28;20048;-72
2021/07/20 10:53:48;;;;;;;5.95;2.17;;;21.50;99.90;;;;;;5043798;28;20032;-72
2021/07/20 10:56:24;;;;;;;4.22;2.00;;;21.40;99.90;;;;;;5045193;28;20045;-72
2021/07/20 10:59:19;;;;;;;3.78;2.00;;;21.30;99.90;;;;;;5045111;28;20068;-73
2021/07/20 11:02:08;;;;;;;5.72;1.73;;;21.20;99.90;;;;;;5044953;28;20034;-70
2021/07/20 11:04:52;;;;;;;4.10;2.22;;;21.00;99.90;;;;;;5044993;28;20057;-71
2021/07/20 11:07:41;;;;;;;3.63;2.25;;;20.90;99.90;;;;;;5044733;28;20029;-74
2021/07/20 11:10:21;;;;;;;3.55;1.92;;;20.80;99.90;;;;;;5035802;28;20049;-74
2021/07/20 11:12:52;;;;;;;2.83;1.95;;;20.80;99.90;;;;;;5045124;28;20026;-73
2021/07/20 11:15:21;;;;;;;3.63;1.63;;;20.70;99.90;;;;;;5044667;28;20052;-75
2021/07/20 11:17:49;;;;;;;8.75;2.08;;;20.70;99.90;;;;;;5045027;28;20030;-73
2021/07/20 11:20:18;;;;;;;10.02;2.55;;;20.70;99.90;;;;;;5050541;28;20131;-72
2021/07/20 11:22:46;;;;;;;3.63;1.95;;;20.70;99.90;;;;;;5064941;28;20029;-73
2021/07/20 11:25:14;;;;;;;6.95;2.45;;;20.70;99.90;;;;;;5064699;28;20028;-74
2021/07/20 11:27:44;;;;;;;3.33;1.63;;;20.90;99.90;;;;;;5064644;28;20043;-71
2021/07/20 11:30:12;;;;;;;3.03;1.75;;;20.90;99.90;;;;;;5064728;28;20065;-74
2021/07/20 11:32:42;;;;;;;3.00;1.83;;;21.10;99.90;;;;;;5064439;28;20147;-74
2021/07/20 11:35:15;;;;;;;3.20;1.95;;;21.30;99.90;;;;;;5063294;28;20025;-72
2021/07/20 11:37:59;;;;;;;4.35;2.15;;;21.60;99.90;;;;;;5064469;28;20025;-70
2021/07/20 11:40:30;;;;;;;4.10;1.90;;;21.70;99.90;;;;;;5064367;28;20028;-73
2021/07/20 11:42:59;;;;;;;3.78;1.85;;;21.80;99.90;;;;;;5064219;28;20040;-74
2021/07/20 11:45:33;;;;;;;4.13;1.77;;;21.80;99.90;;;;;;5064527;28;20116;-72
2021/07/20 11:48:04;;;;;;;2.97;1.70;;;21.90;99.90;;;;;;5064471;28;20025;-76
2021/07/20 11:51:01;;;;;;;3.90;1.98;;;22.00;99.90;;;;;;5064539;28;20064;-75
2021/07/20 11:53:49;;;;;;;3.08;1.73;;;22.00;99.90;;;;;;5063041;28;20055;-71
2021/07/20 11:56:18;;;;;;;3.80;1.67;;;22.00;99.90;;;;;;5064314;28;20049;-71
2021/07/20 11:58:53;;;;;;;3.35;2.05;;;21.70;99.90;;;;;;5064552;28;20037;-74
2021/07/20 12:01:36;;;;;;;3.17;1.80;;;21.50;99.90;;;;;;5063171;28;20048;-75
2021/07/20 12:04:02;;;;;;;4.63;1.60;;;21.30;99.90;;;;;;5065080;28;20053;-72
2021/07/20 12:06:49;;;;;;;4.30;1.58;;;21.20;99.90;;;;;;5064143;28;20032;-72
2021/07/20 12:09:27;;;;;;;5.05;2.30;;;21.10;99.90;;;;;;5064262;28;20025;-73
2021/07/20 12:11:54;;;;;;;13.10;2.92;;;21.10;99.90;;;;;;5064287;28;20025;-73
2021/07/20 12:14:20;;;;;;;2.50;1.67;;;21.20;99.90;;;;;;5063749;28;20112;-72
2021/07/20 12:16:47;;;;;;;2.72;1.65;;;21.30;99.90;;;;;;5064093;28;20037;-72
2021/07/20 12:19:23;;;;;;;4.30;2.53;;;21.60;99.90;;;;;;5063067;28;20032;-72
2021/07/20 12:21:51;;;;;;;2.97;1.80;;;21.90;99.90;;;;;;5065657;28;20021;-70
2021/07/20 12:24:17;;;;;;;4.30;1.75;;;22.40;99.90;;;;;;5068043;28;20114;-74
2021/07/20 12:26:44;;;;;;;6.45;2.22;;;22.60;99.90;;;;;;5066871;28;20025;-74
2021/07/20 12:29:12;;;;;;;5.75;2.15;;;22.60;99.90;;;;;;5066933;28;20055;-70
2021/07/20 12:31:39;;;;;;;4.57;2.17;;;22.80;99.90;;;;;;5067626;28;20032;-73
2021/07/20 12:34:10;;;;;;;6.53;2.28;;;22.90;99.90;;;;;;5067732;28;20593;-73
2021/07/20 12:36:36;;;;;;;4.50;2.30;;;23.10;99.90;;;;;;5067594;28;20044;-72
2021/07/20 12:39:10;;;;;;;5.47;2.60;;;23.20;99.90;;;;;;5066385;28;20093;-71
2021/07/20 12:41:36;;;;;;;4.63;2.22;;;23.30;99.90;;;;;;5067308;28;20033;-73
2021/07/20 12:44:03;;;;;;;3.17;1.85;;;23.30;99.90;;;;;;5067560;28;20384;-71
2021/07/20 12:46:30;;;;;;;3.53;1.65;;;23.20;99.90;;;;;;5067655;28;20032;-71
2021/07/20 12:48:56;;;;;;;2.72;1.60;;;23.10;99.90;;;;;;5067406;28;20023;-73
2021/07/20 12:51:25;;;;;;;4.78;2.08;;;23.00;99.90;;;;;;5067589;28;20028;-73
2021/07/20 12:53:55;;;;;;;3.38;1.80;;;22.90;99.90;;;;;;5067362;28;20075;-74
2021/07/20 12:56:21;;;;;;;5.10;2.13;;;22.80;99.90;;;;;;5067132;28;20392;-73
2021/07/20 12:58:50;;;;;;;3.95;2.33;;;22.70;99.90;;;;;;5067239;28;20025;-73
2021/07/20 13:01:21;;;;;;;4.95;2.33;;;22.50;99.90;;;;;;5067513;28;20017;-74
2021/07/20 13:03:50;;;;;;;4.72;2.10;;;22.40;99.90;;;;;;5066117;28;20060;-74
2021/07/20 13:06:18;;;;;;;5.22;2.35;;;22.20;99.90;;;;;;5082573;28;20041;-74
2021/07/20 13:08:45;;;;;;;5.75;2.25;;;22.00;99.90;;;;;;5067314;28;20025;-71